Time;durP1;ratioP1;P1;durP2;ratioP2;P2;SDS_P1;SDS_P2;PMS_P1;PMS_P2;Temp;Humidity;BMP_temperature;BMP_pressure;BME280_temperature;BME280_humidity;BME280_pressure;Samples;Min_cycle;Max_cycle;Signal;HPM_P1;HPM_P2
2022/05/26 00:00:37;;;;;;;5.10;2.83;;;14.90;99.90;;;;;;5016756;28;20460;-63
2022/05/26 00:03:04;;;;;;;3.70;2.50;;;15.00;99.90;;;;;;5018195;28;20460;-62
2022/05/26 00:05:33;;;;;;;4.80;2.80;;;14.90;99.90;;;;;;5018559;28;20519;-63
2022/05/26 00:08:02;;;;;;;3.93;2.80;;;15.00;99.90;;;;;;5017024;28;20519;-63
2022/05/26 00:10:29;;;;;;;5.77;2.93;;;14.90;99.90;;;;;;5016508;28;20912;-62
2022/05/26 00:12:56;;;;;;;3.03;2.53;;;14.80;99.90;;;;;;5016496;28;20934;-62
2022/05/26 00:15:23;;;;;;;4.03;2.63;;;14.90;99.90;;;;;;5015996;28;20464;-62
2022/05/26 00:17:50;;;;;;;5.87;2.97;;;14.90;99.90;;;;;;5016862;28;20583;-63
2022/05/26 00:20:17;;;;;;;3.70;3.10;;;14.80;99.90;;;;;;5016882;28;20464;-63
2022/05/26 00:22:45;;;;;;;7.23;3.17;;;14.80;99.90;;;;;;5016887;28;20459;-63
2022/05/26 00:25:12;;;;;;;3.77;3.00;;;14.80;99.90;;;;;;5017136;28;20952;-64
2022/05/26 00:27:40;;;;;;;4.80;3.60;;;14.80;99.90;;;;;;5017141;28;20880;-63
2022/05/26 00:30:08;;;;;;;5.03;2.40;;;14.80;99.90;;;;;;5015710;28;20870;-63
2022/05/26 00:32:35;;;;;;;4.40;2.73;;;14.70;99.90;;;;;;5016266;28;20499;-62
2022/05/26 00:35:02;;;;;;;5.60;2.90;;;14.70;99.90;;;;;;5016828;28;20525;-63
2022/05/26 00:37:32;;;;;;;6.03;3.00;;;14.70;99.90;;;;;;5017484;28;20760;-62
2022/05/26 00:40:06;;;;;;;3.43;3.13;;;14.70;99.90;;;;;;5018840;28;20490;-63
2022/05/26 00:42:33;;;;;;;4.43;2.63;;;14.70;99.90;;;;;;5020621;28;20529;-62
2022/05/26 00:45:00;;;;;;;4.20;2.67;;;14.70;99.90;;;;;;5019851;28;20467;-63
2022/05/26 00:47:33;;;;;;;5.10;2.33;;;14.70;99.90;;;;;;5020268;28;20471;-63
2022/05/26 00:50:05;;;;;;;6.27;3.03;;;14.70;99.90;;;;;;5021514;28;20468;-63
2022/05/26 00:52:35;;;;;;;3.17;1.97;;;14.70;99.90;;;;;;5023807;28;20507;-62
2022/05/26 00:55:09;;;;;;;4.03;2.70;;;14.70;99.90;;;;;;5024601;28;20464;-62
2022/05/26 00:57:40;;;;;;;4.03;2.40;;;14.60;99.90;;;;;;5022139;28;20756;-62
2022/05/26 01:00:15;;;;;;;5.10;3.07;;;14.60;99.90;;;;;;5018168;28;20491;-62
2022/05/26 01:02:47;;;;;;;4.23;2.33;;;14.60;99.90;;;;;;5026767;28;20907;-62
2022/05/26 01:05:20;;;;;;;5.23;2.77;;;14.60;99.90;;;;;;5025423;28;20863;-62
2022/05/26 01:07:56;;;;;;;5.93;3.50;;;14.60;99.90;;;;;;5021663;28;20503;-63
2022/05/26 01:10:28;;;;;;;5.80;3.20;;;14.60;99.90;;;;;;5031393;28;20462;-62
2022/05/26 01:12:56;;;;;;;6.97;2.90;;;14.50;99.90;;;;;;5020486;28;20986;-62
2022/05/26 01:15:24;;;;;;;8.53;2.90;;;14.50;99.90;;;;;;5019859;28;20464;-63
2022/05/26 01:17:59;;;;;;;4.23;2.73;;;14.50;99.90;;;;;;5019041;28;20470;-63
2022/05/26 01:20:52;;;;;;;6.10;3.37;;;14.60;99.90;;;;;;5018737;28;20489;-63
2022/05/26 01:23:46;;;;;;;2.97;2.67;;;14.50;99.90;;;;;;5018186;28;20465;-62
2022/05/26 01:26:56;;;;;;;3.20;2.80;;;14.50;99.90;;;;;;5010257;28;20535;-62
2022/05/26 01:29:49;;;;;;;4.10;2.63;;;14.50;99.90;;;;;;5019814;28;20518;-60
2022/05/26 01:32:25;;;;;;;4.13;2.57;;;14.50;99.90;;;;;;5018160;28;20492;-62
2022/05/26 01:35:01;;;;;;;2.90;2.40;;;14.50;99.90;;;;;;5019687;28;20903;-63
2022/05/26 01:37:37;;;;;;;3.67;2.83;;;14.50;99.90;;;;;;5019034;28;20467;-62
2022/05/26 01:40:11;;;;;;;4.77;2.97;;;14.50;99.90;;;;;;5019240;28;20830;-62
2022/05/26 01:42:46;;;;;;;8.77;2.73;;;14.50;99.90;;;;;;5018817;28;20486;-61
2022/05/26 01:45:21;;;;;;;3.63;2.33;;;14.50;99.90;;;;;;5019474;28;20433;-65
2022/05/26 01:47:55;;;;;;;7.83;2.67;;;14.50;99.90;;;;;;5019492;28;20493;-63
2022/05/26 01:50:29;;;;;;;4.30;2.80;;;14.50;99.90;;;;;;5018603;28;20544;-63
2022/05/26 01:53:08;;;;;;;4.13;3.20;;;14.50;99.90;;;;;;5018037;28;20575;-63
2022/05/26 01:55:43;;;;;;;3.20;2.90;;;14.50;99.90;;;;;;5019644;28;20554;-63
2022/05/26 01:58:16;;;;;;;4.97;3.70;;;14.50;99.90;;;;;;5019427;28;20438;-63
2022/05/26 02:00:45;;;;;;;4.67;2.50;;;14.50;99.90;;;;;;5018676;28;20463;-64
2022/05/26 02:03:17;;;;;;;3.30;2.57;;;14.50;99.90;;;;;;5018322;28;20460;-61
2022/05/26 02:05:49;;;;;;;5.57;2.97;;;14.50;99.90;;;;;;4999932;28;20516;-64
2022/05/26 02:08:22;;;;;;;3.67;3.03;;;14.50;99.90;;;;;;5011822;28;20563;-62
2022/05/26 02:10:53;;;;;;;8.60;3.43;;;14.50;99.90;;;;;;5018858;28;20963;-62
2022/05/26 02:13:27;;;;;;;4.77;3.57;;;14.50;99.90;;;;;;5018401;28;20511;-63
2022/05/26 02:16:01;;;;;;;4.60;3.40;;;14.50;99.90;;;;;;5019111;28;20522;-63
2022/05/26 02:18:35;;;;;;;5.60;3.50;;;14.40;99.90;;;;;;5018363;28;20464;-62
2022/05/26 02:21:07;;;;;;;5.93;3.70;;;14.30;99.90;;;;;;5018828;28;20462;-62
2022/05/26 02:23:37;;;;;;;4.77;3.20;;;14.30;99.90;;;;;;5018751;28;20468;-60
2022/05/26 02:26:08;;;;;;;6.40;3.80;;;14.20;1.00;;;;;;5018420;28;20542;-65
2022/05/26 02:31:19;;;;;;;4.50;3.37;;;14.10;1.00;;;;;;5017976;28;20480;-63
2022/05/26 02:33:52;;;;;;;4.60;3.73;;;14.00;1.00;;;;;;5017852;28;20767;-63
2022/05/26 02:36:19;;;;;;;4.17;3.67;;;14.00;1.00;;;;;;4998409;28;20527;-62
2022/05/26 02:38:46;;;;;;;5.40;3.10;;;14.00;1.00;;;;;;5004175;28;20951;-64
2022/05/26 02:41:14;;;;;;;7.83;3.60;;;14.00;1.00;;;;;;5019079;28;20562;-63
2022/05/26 02:43:42;;;;;;;4.67;3.13;;;14.00;1.00;;;;;;5018618;28;20833;-63
2022/05/26 02:46:33;;;;;;;3.93;3.37;;;14.00;1.00;;;;;;5017900;28;20464;-64
2022/05/26 02:49:17;;;;;;;4.13;3.73;;;14.00;1.00;;;;;;5019009;28;20446;-64
2022/05/26 02:51:52;;;;;;;6.50;3.70;;;14.00;1.00;;;;;;5020291;28;20492;-62
2022/05/26 02:54:27;;;;;;;5.40;3.47;;;14.00;1.00;;;;;;5019317;28;20468;-62
2022/05/26 02:57:07;;;;;;;9.13;4.20;;;14.00;1.00;;;;;;5019213;28;20518;-63
2022/05/26 02:59:43;;;;;;;5.60;4.10;;;13.90;1.00;;;;;;5019645;28;20522;-63
2022/05/26 03:02:15;;;;;;;4.33;3.93;;;14.00;1.00;;;;;;5020068;28;20750;-63
2022/05/26 03:04:47;;;;;;;5.53;4.70;;;14.00;1.00;;;;;;5020226;28;20893;-62
2022/05/26 03:07:22;;;;;;;5.10;4.47;;;13.90;1.00;;;;;;5019383;28;20464;-62
2022/05/26 03:10:09;;;;;;;4.97;3.97;;;13.90;1.00;;;;;;5019660;28;20512;-63
2022/05/26 03:12:37;;;;;;;4.23;3.93;;;13.80;1.00;;;;;;5019516;28;21002;-62
2022/05/26 03:15:08;;;;;;;6.13;4.30;;;13.80;1.00;;;;;;5020130;28;20895;-62
2022/05/26 03:17:38;;;;;;;4.20;3.80;;;13.80;1.00;;;;;;5019004;28;20855;-62
2022/05/26 03:20:08;;;;;;;9.30;4.37;;;13.80;1.00;;;;;;5019205;28;20963;-62
2022/05/26 03:22:38;;;;;;;4.93;4.40;;;13.70;1.00;;;;;;5019081;28;20439;-64
2022/05/26 03:25:06;;;;;;;5.70;4.30;;;13.70;1.00;;;;;;5018975;28;20467;-63
2022/05/26 03:27:33;;;;;;;4.50;4.10;;;13.70;5.10;;;;;;5018758;28;20468;-63
2022/05/26 03:30:00;;;;;;;7.83;4.23;;;13.70;14.20;;;;;;5019436;28;20468;-63
2022/05/26 03:32:27;;;;;;;6.00;3.93;;;13.70;12.20;;;;;;5018391;28;20470;-63
2022/05/26 03:40:47;;;;;;;4.90;4.40;;;13.70;1.00;;;;;;5019006;28;20443;-63
2022/05/26 03:43:15;;;;;;;4.10;3.73;;;13.80;1.00;;;;;;5018670;28;20439;-62
2022/05/26 03:45:43;;;;;;;6.20;3.73;;;13.80;1.00;;;;;;5019325;28;20466;-63
2022/05/26 03:48:10;;;;;;;5.10;4.23;;;13.80;1.00;;;;;;5019332;28;20474;-62
2022/05/26 03:50:37;;;;;;;5.40;4.47;;;13.70;1.00;;;;;;5019129;28;20443;-64
2022/05/26 03:53:06;;;;;;;5.40;3.80;;;13.80;1.00;;;;;;5018027;28;20463;-63
2022/05/26 03:55:36;;;;;;;5.93;4.30;;;13.90;1.00;;;;;;5019195;28;20475;-62
2022/05/26 03:58:03;;;;;;;4.97;4.17;;;13.80;1.00;;;;;;5018964;28;20534;-64
2022/05/26 04:00:32;;;;;;;7.00;3.50;;;13.90;1.00;;;;;;5018280;28;20468;-63
2022/05/26 04:02:59;;;;;;;4.13;3.40;;;13.80;1.00;;;;;;5018880;28;20739;-63
2022/05/26 04:05:27;;;;;;;4.97;3.90;;;13.90;1.00;;;;;;5018230;28;20491;-63
2022/05/26 04:07:57;;;;;;;7.90;3.93;;;14.00;1.00;;;;;;5019156;28;20459;-62
2022/05/26 04:10:25;;;;;;;4.90;4.03;;;13.90;1.00;;;;;;5017847;28;20475;-63
2022/05/26 04:12:52;;;;;;;7.43;4.33;;;13.90;1.00;;;;;;5018844;28;20805;-63
2022/05/26 04:15:19;;;;;;;6.83;3.80;;;13.80;1.00;;;;;;5021414;28;20522;-63
2022/05/26 04:17:47;;;;;;;5.60;4.10;;;13.80;1.00;;;;;;5022689;28;20464;-64
2022/05/26 04:20:17;;;;;;;4.97;4.47;;;13.80;1.00;;;;;;5020019;28;20880;-64
2022/05/26 04:22:44;;;;;;;7.50;4.23;;;13.80;1.00;;;;;;5021278;28;21027;-64
2022/05/26 04:25:13;;;;;;;4.43;4.00;;;13.80;66.40;;;;;;5020383;28;20463;-62
2022/05/26 04:27:41;;;;;;;7.67;4.97;;;13.70;99.90;;;;;;5021447;28;20470;-65
2022/05/26 04:30:11;;;;;;;8.47;5.27;;;13.80;99.90;;;;;;5020634;28;20848;-63
2022/05/26 04:32:40;;;;;;;5.93;4.87;;;13.70;1.00;;;;;;5020583;28;20513;-64
2022/05/26 04:35:10;;;;;;;5.90;5.30;;;13.60;99.90;;;;;;5020670;28;20470;-64
2022/05/26 04:37:38;;;;;;;7.50;6.53;;;13.40;99.90;;;;;;5021294;28;20521;-64
2022/05/26 04:40:06;;;;;;;8.23;5.90;;;13.40;1.00;;;;;;5021136;28;20463;-65
2022/05/26 04:42:33;;;;;;;8.53;5.70;;;13.40;1.00;;;;;;5019825;28;20460;-66
2022/05/26 04:45:06;;;;;;;8.23;6.10;;;13.40;1.00;;;;;;5020319;28;20506;-72
2022/05/26 04:47:33;;;;;;;8.20;5.80;;;13.40;99.90;;;;;;5021161;28;20471;-69
2022/05/26 04:50:06;;;;;;;11.50;6.67;;;13.40;99.90;;;;;;5020915;28;20467;-69
2022/05/26 04:52:33;;;;;;;8.20;7.40;;;13.30;99.90;;;;;;5020274;28;20488;-68
2022/05/26 04:55:00;;;;;;;10.23;7.80;;;13.20;99.90;;;;;;5020617;28;20761;-67
2022/05/26 04:57:27;;;;;;;7.17;6.03;;;13.30;99.90;;;;;;5020553;28;20554;-68
2022/05/26 04:59:54;;;;;;;9.80;7.33;;;13.30;99.90;;;;;;5021664;28;20517;-67
2022/05/26 05:02:24;;;;;;;9.50;8.00;;;13.20;99.90;;;;;;5008111;28;20765;-67
2022/05/26 05:04:56;;;;;;;9.00;7.03;;;13.30;99.90;;;;;;5020488;28;20439;-66
2022/05/26 05:07:23;;;;;;;8.23;7.47;;;13.30;99.90;;;;;;5019415;28;20471;-69
2022/05/26 05:09:50;;;;;;;9.90;8.37;;;13.30;99.90;;;;;;5019604;28;20449;-68
2022/05/26 05:12:20;;;;;;;8.70;7.17;;;13.30;99.90;;;;;;5018253;28;20487;-65
2022/05/26 05:14:48;;;;;;;8.50;7.20;;;13.30;99.90;;;;;;5020327;28;20538;-66
2022/05/26 05:17:17;;;;;;;9.33;8.37;;;13.20;99.90;;;;;;5019845;28;20464;-65
2022/05/26 05:19:47;;;;;;;8.60;7.80;;;13.20;99.90;;;;;;5020620;28;20442;-66
2022/05/26 05:22:21;;;;;;;9.07;8.00;;;13.20;99.90;;;;;;5019365;28;20467;-65
2022/05/26 05:24:53;;;;;;;9.13;8.20;;;13.20;99.90;;;;;;5016478;28;20525;-65
2022/05/26 05:27:27;;;;;;;10.47;9.47;;;13.20;99.90;;;;;;5016455;28;20519;-65
2022/05/26 05:29:59;;;;;;;14.03;9.47;;;13.30;99.90;;;;;;5020263;28;20522;-65
2022/05/26 05:32:34;;;;;;;12.90;10.37;;;13.20;99.90;;;;;;5019546;28;20495;-64
2022/05/26 05:35:08;;;;;;;12.33;10.30;;;13.30;99.90;;;;;;5019416;28;20467;-64
2022/05/26 05:37:36;;;;;;;13.30;11.60;;;13.30;99.90;;;;;;5019539;28;20466;-65
2022/05/26 05:40:07;;;;;;;14.57;12.20;;;13.40;99.90;;;;;;5020057;28;20468;-64
2022/05/26 05:42:34;;;;;;;15.60;13.10;;;13.50;99.90;;;;;;5019600;28;20435;-64
2022/05/26 05:45:10;;;;;;;17.20;12.60;;;13.60;99.90;;;;;;5019235;28;20561;-64
2022/05/26 05:47:37;;;;;;;15.83;12.27;;;13.70;99.90;;;;;;5000610;28;20535;-64
2022/05/26 05:50:07;;;;;;;15.70;12.70;;;13.70;99.90;;;;;;5019546;28;20459;-64
2022/05/26 05:52:36;;;;;;;14.27;12.70;;;13.70;99.90;;;;;;5019416;28;20496;-65
2022/05/26 05:55:04;;;;;;;14.50;12.20;;;13.60;99.90;;;;;;5019185;28;20474;-67
2022/05/26 05:57:31;;;;;;;17.00;14.07;;;13.70;99.90;;;;;;5019151;28;20566;-64
2022/05/26 05:59:58;;;;;;;20.67;12.70;;;13.70;99.90;;;;;;5019821;28;20502;-64
2022/05/26 06:02:25;;;;;;;17.87;13.20;;;13.70;99.90;;;;;;5018502;28;20514;-64
2022/05/26 06:04:52;;;;;;;20.10;13.93;;;13.80;99.90;;;;;;5017566;28;20466;-64
2022/05/26 06:07:22;;;;;;;18.80;14.40;;;13.90;99.90;;;;;;5018971;28;20456;-64
2022/05/26 06:09:50;;;;;;;17.23;14.97;;;13.90;99.90;;;;;;5018787;28;20466;-65
2022/05/26 06:12:17;;;;;;;19.17;13.03;;;14.00;99.90;;;;;;5019260;28;20803;-65
2022/05/26 06:14:46;;;;;;;19.80;15.27;;;14.00;99.90;;;;;;5017856;28;20464;-64
2022/05/26 06:17:14;;;;;;;18.53;14.37;;;14.00;1.00;;;;;;5019324;28;20464;-64
2022/05/26 06:19:43;;;;;;;20.20;13.80;;;14.00;1.00;;;;;;5018308;28;20442;-64
2022/05/26 06:22:11;;;;;;;17.43;15.00;;;14.10;1.00;;;;;;5018847;28;20789;-64
2022/05/26 06:24:44;;;;;;;19.97;13.40;;;14.10;1.00;;;;;;5019077;28;20522;-65
2022/05/26 06:29:59;;;;;;;18.90;13.07;;;14.00;99.90;;;;;;5017748;28;20454;-64
2022/05/26 06:38:01;;;;;;;16.63;13.20;;;14.10;99.90;;;;;;5018341;28;20923;-63
2022/05/26 06:40:31;;;;;;;18.60;14.00;;;14.10;99.90;;;;;;5017563;28;20554;-64
2022/05/26 06:42:58;;;;;;;16.60;11.93;;;14.00;99.90;;;;;;5018458;28;20464;-64
2022/05/26 06:45:25;;;;;;;26.77;13.40;;;14.10;99.90;;;;;;5018053;28;20464;-63
2022/05/26 06:47:52;;;;;;;20.57;13.50;;;14.10;1.00;;;;;;5018327;28;20460;-63
2022/05/26 06:50:20;;;;;;;17.37;12.93;;;14.10;93.00;;;;;;5017921;28;20472;-64
2022/05/26 06:52:46;;;;;;;20.17;13.80;;;14.10;1.00;;;;;;5018161;28;20553;-63
2022/05/26 06:55:13;;;;;;;19.90;13.30;;;14.10;99.90;;;;;;5018045;28;20542;-65
2022/05/26 06:57:42;;;;;;;23.00;14.90;;;14.20;99.90;;;;;;5018377;28;20892;-63
2022/05/26 07:00:11;;;;;;;19.37;13.93;;;14.40;99.90;;;;;;5014724;28;20457;-63
2022/05/26 07:02:39;;;;;;;17.43;12.70;;;14.50;99.90;;;;;;5017865;28;20841;-65
2022/05/26 07:05:11;;;;;;;16.10;11.53;;;14.50;1.00;;;;;;5018147;28;20483;-63
2022/05/26 07:07:42;;;;;;;22.80;13.20;;;14.60;99.90;;;;;;5018232;28;20464;-62
2022/05/26 07:10:13;;;;;;;17.37;12.60;;;14.70;99.90;;;;;;5017466;28;20468;-62
2022/05/26 07:12:46;;;;;;;17.53;12.93;;;14.90;1.00;;;;;;5012403;28;20471;-63
2022/05/26 07:15:13;;;;;;;23.20;12.50;;;15.00;1.00;;;;;;5018059;28;20558;-63
2022/05/26 07:17:40;;;;;;;14.67;12.83;;;15.10;99.90;;;;;;5017984;28;20475;-63
2022/05/26 07:20:12;;;;;;;14.10;11.23;;;15.00;1.00;;;;;;5018455;28;20518;-63
2022/05/26 07:22:39;;;;;;;17.50;13.00;;;14.90;1.00;;;;;;5016103;28;20494;-63
2022/05/26 07:25:07;;;;;;;14.13;11.67;;;14.90;1.00;;;;;;5017141;28;20827;-62
2022/05/26 07:27:57;;;;;;;12.60;11.00;;;14.90;1.00;;;;;;5018325;28;20519;-65
2022/05/26 07:30:27;;;;;;;17.63;12.27;;;15.00;1.00;;;;;;5017569;28;20471;-63
2022/05/26 07:32:54;;;;;;;18.13;13.13;;;15.00;1.00;;;;;;5016782;28;20565;-62
2022/05/26 07:35:24;;;;;;;16.43;11.53;;;15.10;1.00;;;;;;5018065;28;20464;-62
2022/05/26 07:43:25;;;;;;;18.50;13.63;;;15.30;1.00;;;;;;5017705;28;20476;-62
2022/05/26 07:45:52;;;;;;;19.30;13.27;;;15.40;1.00;;;;;;5018451;28;20897;-63
2022/05/26 07:48:21;;;;;;;19.67;13.57;;;15.60;1.00;;;;;;5005663;28;20562;-62
2022/05/26 07:50:54;;;;;;;16.30;13.63;;;15.80;1.00;;;;;;5017270;28;20514;-63
2022/05/26 07:53:21;;;;;;;18.83;12.67;;;16.10;1.00;;;;;;5016210;28;20499;-63
2022/05/26 07:55:51;;;;;;;16.13;11.70;;;16.90;1.00;;;;;;5017830;28;20463;-63
2022/05/26 07:58:20;;;;;;;13.00;11.80;;;17.30;1.00;;;;;;5016121;28;20463;-64
2022/05/26 08:00:49;;;;;;;16.30;12.40;;;17.40;1.00;;;;;;5017566;28;20464;-63
2022/05/26 08:03:19;;;;;;;18.17;13.30;;;17.90;1.00;;;;;;5012872;28;20476;-64
2022/05/26 08:05:46;;;;;;;16.37;12.47;;;18.00;99.90;;;;;;5016710;28;20526;-63
2022/05/26 08:08:16;;;;;;;16.03;11.40;;;18.00;99.90;;;;;;5015347;28;20574;-64
2022/05/26 08:10:46;;;;;;;13.57;11.07;;;18.40;99.90;;;;;;5015882;28;20495;-63
2022/05/26 08:13:14;;;;;;;15.57;10.77;;;19.10;99.90;;;;;;5016807;28;20542;-63
2022/05/26 08:15:52;;;;;;;13.67;11.13;;;19.60;99.90;;;;;;5016631;28;20472;-65
2022/05/26 08:18:21;;;;;;;13.47;10.67;;;18.80;99.90;;;;;;5014603;28;20475;-63
2022/05/26 08:20:48;;;;;;;13.47;11.03;;;17.90;99.90;;;;;;5017170;28;20522;-63
2022/05/26 08:23:14;;;;;;;13.03;10.00;;;17.60;99.90;;;;;;5016052;28;20750;-63
2022/05/26 08:25:44;;;;;;;12.07;9.70;;;17.50;99.90;;;;;;5015216;28;20554;-63
2022/05/26 08:28:11;;;;;;;14.73;10.00;;;17.10;99.90;;;;;;5016828;28;20464;-62
2022/05/26 08:30:39;;;;;;;13.30;8.87;;;17.00;99.90;;;;;;5016499;28;20484;-63
2022/05/26 08:33:09;;;;;;;10.13;8.93;;;16.90;99.90;;;;;;5015316;28;20495;-63
2022/05/26 08:35:39;;;;;;;12.77;9.30;;;16.70;99.90;;;;;;5016649;28;20894;-63
2022/05/26 08:38:09;;;;;;;12.97;9.33;;;16.90;99.90;;;;;;5010506;28;20501;-64
2022/05/26 08:40:40;;;;;;;13.13;8.17;;;17.60;99.90;;;;;;5014828;28;20464;-63
2022/05/26 08:43:13;;;;;;;9.07;7.70;;;18.10;99.90;;;;;;5016782;28;20526;-63
2022/05/26 08:45:50;;;;;;;13.03;8.13;;;18.30;99.90;;;;;;5015755;28;20442;-63
2022/05/26 08:48:38;;;;;;;15.57;8.27;;;18.70;99.90;;;;;;5016634;28;20549;-63
2022/05/26 08:51:11;;;;;;;11.33;8.23;;;19.10;99.90;;;;;;5016150;28;20849;-64
2022/05/26 08:53:40;;;;;;;9.60;7.00;;;18.60;99.90;;;;;;5014143;28;20495;-63
2022/05/26 08:56:11;;;;;;;19.70;8.53;;;18.30;99.90;;;;;;5015463;28;20472;-63
2022/05/26 08:58:43;;;;;;;11.23;8.20;;;18.00;99.90;;;;;;5014507;28;20538;-63
2022/05/26 09:01:13;;;;;;;12.43;7.37;;;18.20;99.90;;;;;;5018859;28;20463;-64
2022/05/26 09:03:42;;;;;;;8.87;7.70;;;17.90;99.90;;;;;;5021014;28;20464;-64
2022/05/26 09:06:16;;;;;;;12.87;8.80;;;17.80;99.90;;;;;;5019707;28;20552;-63
2022/05/26 09:14:29;;;;;;;13.10;7.97;;;18.30;99.90;;;;;;5019825;28;20624;-63
2022/05/26 09:16:58;;;;;;;10.77;7.70;;;18.40;99.90;;;;;;5017551;28;20478;-63
2022/05/26 09:19:35;;;;;;;11.63;8.10;;;18.40;99.90;;;;;;5020545;28;20468;-64
2022/05/26 09:22:02;;;;;;;8.37;7.07;;;18.50;99.90;;;;;;5019771;28;20897;-63
2022/05/26 09:24:37;;;;;;;13.90;7.43;;;18.60;99.90;;;;;;5019926;28;20812;-64
2022/05/26 09:27:07;;;;;;;11.83;7.23;;;18.50;99.90;;;;;;5016793;28;20943;-62
2022/05/26 09:29:37;;;;;;;9.50;6.97;;;18.40;99.90;;;;;;5019712;28;20569;-63
2022/05/26 09:32:15;;;;;;;10.17;7.03;;;18.40;99.90;;;;;;5018738;28;20559;-64
2022/05/26 09:35:01;;;;;;;10.90;6.03;;;18.80;99.90;;;;;;5018711;28;20549;-63
2022/05/26 09:37:39;;;;;;;7.80;5.20;;;19.20;99.90;;;;;;5017204;28;20526;-63
2022/05/26 09:40:18;;;;;;;6.90;5.60;;;18.90;99.90;;;;;;5022233;28;20496;-63
2022/05/26 09:42:50;;;;;;;11.97;6.87;;;18.70;99.90;;;;;;5018613;28;20558;-64
2022/05/26 09:45:20;;;;;;;11.40;6.07;;;18.80;99.90;;;;;;5015640;28;20554;-64
2022/05/26 09:47:53;;;;;;;10.33;5.63;;;19.80;99.90;;;;;;5015786;28;20496;-63
2022/05/26 09:50:41;;;;;;;8.97;5.90;;;21.10;99.90;;;;;;5015732;28;20841;-64
2022/05/26 09:53:11;;;;;;;8.40;5.97;;;21.10;99.90;;;;;;5015064;28;20502;-63
2022/05/26 09:55:49;;;;;;;8.77;5.60;;;20.40;99.90;;;;;;5015817;28;20497;-65
2022/05/26 09:58:34;;;;;;;9.23;5.80;;;19.50;99.90;;;;;;5017188;28;20550;-63
2022/05/26 10:01:03;;;;;;;10.37;6.70;;;19.00;99.90;;;;;;5017950;28;20475;-64
2022/05/26 10:03:48;;;;;;;6.50;5.03;;;19.20;99.90;;;;;;5018930;28;20459;-64
2022/05/26 10:06:26;;;;;;;7.30;5.07;;;20.10;99.90;;;;;;5017318;28;20525;-66
2022/05/26 10:09:12;;;;;;;7.57;5.13;;;19.60;99.90;;;;;;5018667;28;20460;-63
2022/05/26 10:11:54;;;;;;;8.37;5.50;;;19.00;99.90;;;;;;5017838;28;20464;-62
2022/05/26 10:14:44;;;;;;;9.67;6.00;;;18.80;99.90;;;;;;5016827;28;20499;-64
2022/05/26 10:17:20;;;;;;;10.20;5.67;;;18.40;99.90;;;;;;5009903;28;20526;-63
2022/05/26 10:20:08;;;;;;;9.93;6.67;;;18.70;99.90;;;;;;5018170;28;20464;-64
2022/05/26 10:22:48;;;;;;;7.60;5.00;;;19.50;99.90;;;;;;5005922;28;20518;-63
2022/05/26 10:25:27;;;;;;;9.03;5.50;;;19.60;99.90;;;;;;5018286;28;20455;-64
2022/05/26 10:28:09;;;;;;;6.77;4.73;;;19.50;99.90;;;;;;5017939;28;20522;-64
2022/05/26 10:30:47;;;;;;;6.80;4.70;;;20.30;99.90;;;;;;5017899;28;20499;-63
2022/05/26 10:33:50;;;;;;;6.07;4.60;;;20.70;99.90;;;;;;5015644;28;20530;-63
2022/05/26 10:36:22;;;;;;;10.83;5.20;;;21.00;99.90;;;;;;4998356;28;20527;-63
2022/05/26 10:39:11;;;;;;;7.77;5.23;;;20.90;99.90;;;;;;4998552;28;20468;-62
2022/05/26 10:41:45;;;;;;;8.33;4.57;;;20.00;99.90;;;;;;5016661;28;20466;-63
2022/05/26 10:44:20;;;;;;;7.57;5.13;;;19.50;99.90;;;;;;5018260;28;20523;-64
2022/05/26 10:46:55;;;;;;;6.87;5.63;;;18.80;99.90;;;;;;5018338;28;20459;-63
2022/05/26 10:49:32;;;;;;;7.87;5.40;;;18.70;99.90;;;;;;5017819;28;20529;-63
2022/05/26 10:52:07;;;;;;;6.73;5.17;;;19.30;99.90;;;;;;5017103;28;20456;-64
2022/05/26 10:54:40;;;;;;;7.17;5.10;;;20.60;99.90;;;;;;5017676;28;20497;-65
2022/05/26 10:57:16;;;;;;;5.13;4.17;;;21.10;99.90;;;;;;5018250;28;20442;-64
2022/05/26 10:59:49;;;;;;;9.53;5.40;;;21.00;99.90;;;;;;5018739;28;20458;-64
2022/05/26 11:02:25;;;;;;;9.40;4.90;;;20.40;99.90;;;;;;5012480;28;20446;-64
2022/05/26 11:05:01;;;;;;;5.53;4.40;;;19.60;99.90;;;;;;5021568;28;20521;-65
2022/05/26 11:07:37;;;;;;;11.53;5.40;;;19.10;99.90;;;;;;5016743;28;20474;-63
2022/05/26 11:10:14;;;;;;;9.93;5.33;;;18.60;99.90;;;;;;5022110;28;20831;-62
2022/05/26 11:12:49;;;;;;;6.00;4.90;;;18.30;99.90;;;;;;5021403;28;20546;-62
2022/05/26 11:18:06;;;;;;;10.17;5.23;;;18.60;99.90;;;;;;4970730;28;20454;-64
2022/05/26 11:20:42;;;;;;;8.50;4.83;;;20.20;99.90;;;;;;5027466;28;20480;-63
2022/05/26 11:23:12;;;;;;;8.50;4.37;;;20.60;99.90;;;;;;5015243;28;20467;-63
2022/05/26 11:25:52;;;;;;;9.33;5.07;;;20.20;99.90;;;;;;4997647;28;20495;-63
2022/05/26 11:28:31;;;;;;;7.77;5.03;;;19.90;99.90;;;;;;5020929;28;20550;-64
2022/05/26 11:36:49;;;;;;;8.60;5.17;;;18.60;99.90;;;;;;5025411;28;20455;-63
2022/05/26 11:39:28;;;;;;;7.50;4.40;;;18.30;99.90;;;;;;5027100;28;20881;-63
2022/05/26 11:41:59;;;;;;;7.60;5.00;;;18.30;99.90;;;;;;5016305;28;20467;-64
2022/05/26 11:44:37;;;;;;;7.30;4.57;;;18.70;99.90;;;;;;5015519;28;20430;-63
2022/05/26 11:47:28;;;;;;;5.40;4.10;;;19.70;99.90;;;;;;5020327;28;20456;-64
2022/05/26 11:50:31;;;;;;;6.20;4.30;;;20.10;99.90;;;;;;5007203;28;20466;-64
2022/05/26 11:53:10;;;;;;;7.17;4.40;;;19.80;99.90;;;;;;5016863;28;20504;-64
2022/05/26 11:55:52;;;;;;;8.17;4.37;;;19.20;99.90;;;;;;5016703;28;20955;-63
2022/05/26 11:58:35;;;;;;;8.80;4.70;;;18.90;99.90;;;;;;5016579;28;20498;-63
2022/05/26 12:01:35;;;;;;;8.27;4.53;;;18.50;99.90;;;;;;5025174;28;20845;-62
2022/05/26 12:04:28;;;;;;;5.20;4.57;;;18.40;99.90;;;;;;5022430;28;20434;-64
2022/05/26 12:06:59;;;;;;;6.20;4.67;;;18.50;99.90;;;;;;5010586;28;20893;-64
2022/05/26 12:09:35;;;;;;;4.53;3.83;;;19.60;99.90;;;;;;5016563;28;20894;-63
2022/05/26 12:12:08;;;;;;;8.53;4.93;;;20.70;99.90;;;;;;5016693;28;20467;-63
2022/05/26 12:14:47;;;;;;;8.53;3.93;;;20.80;99.90;;;;;;5017184;28;20932;-62
2022/05/26 12:17:32;;;;;;;7.20;4.60;;;20.40;99.90;;;;;;5016529;28;20468;-63
2022/05/26 12:20:06;;;;;;;6.00;4.23;;;20.10;99.90;;;;;;5017163;28;20812;-63
2022/05/26 12:22:37;;;;;;;7.20;4.37;;;19.80;99.90;;;;;;5016941;28;20571;-64
2022/05/26 12:25:26;;;;;;;7.27;4.50;;;19.50;99.90;;;;;;5017230;28;20554;-63
2022/05/26 12:28:06;;;;;;;7.57;4.30;;;19.40;99.90;;;;;;5011186;28;20523;-63
2022/05/26 12:30:58;;;;;;;8.97;4.77;;;19.40;99.90;;;;;;5016864;28;20499;-63
2022/05/26 12:34:06;;;;;;;8.00;4.87;;;20.00;99.90;;;;;;5016289;28;20442;-63
2022/05/26 12:37:08;;;;;;;6.40;5.13;;;20.80;99.90;;;;;;5019769;28;20561;-63
2022/05/26 12:40:07;;;;;;;5.70;4.57;;;21.60;99.90;;;;;;5015874;28;20450;-64
2022/05/26 12:42:49;;;;;;;9.97;4.30;;;22.20;99.90;;;;;;5020737;28;20522;-63
2022/05/26 12:45:35;;;;;;;7.53;4.40;;;21.50;99.90;;;;;;5020068;28;20921;-64
2022/05/26 12:48:26;;;;;;;5.70;3.97;;;20.90;99.90;;;;;;5020738;28;20460;-65
2022/05/26 12:50:55;;;;;;;5.50;4.33;;;21.70;99.90;;;;;;5020518;28;20818;-65
2022/05/26 12:53:27;;;;;;;6.53;3.60;;;22.30;99.90;;;;;;5020285;28;20471;-64
2022/05/26 12:56:00;;;;;;;6.90;4.20;;;22.50;99.90;;;;;;5017546;28;20878;-63
2022/05/26 12:58:37;;;;;;;8.23;4.20;;;22.30;99.90;;;;;;5018738;28;20455;-64
2022/05/26 13:01:13;;;;;;;7.10;4.00;;;22.00;99.90;;;;;;5019451;28;20557;-64
2022/05/26 13:03:44;;;;;;;5.53;4.43;;;21.20;99.90;;;;;;5020183;28;20463;-63
2022/05/26 13:06:15;;;;;;;8.00;4.87;;;21.10;99.90;;;;;;5019112;28;20472;-64
2022/05/26 13:08:47;;;;;;;9.23;4.33;;;21.20;99.90;;;;;;5020069;28;20463;-63
2022/05/26 13:11:18;;;;;;;5.90;3.63;;;21.10;99.90;;;;;;5019253;28;20468;-63
2022/05/26 13:13:51;;;;;;;7.60;3.80;;;21.60;99.90;;;;;;5020193;28;20463;-63
2022/05/26 13:16:32;;;;;;;8.00;4.50;;;22.20;99.90;;;;;;5019566;28;20496;-64
2022/05/26 13:19:12;;;;;;;5.10;4.20;;;22.70;99.90;;;;;;5018503;28;20839;-63
2022/05/26 13:21:40;;;;;;;8.40;4.30;;;22.50;99.90;;;;;;5019858;28;20456;-63
2022/05/26 13:24:17;;;;;;;8.03;4.30;;;22.10;99.90;;;;;;5020035;28;20460;-64
2022/05/26 13:26:44;;;;;;;5.17;4.10;;;21.90;99.90;;;;;;5018902;28;20522;-64
2022/05/26 13:29:12;;;;;;;4.83;4.20;;;21.60;99.90;;;;;;5019060;28;20464;-64
2022/05/26 13:34:32;;;;;;;5.73;4.33;;;21.00;99.90;;;;;;5019319;28;20474;-65
2022/05/26 13:37:04;;;;;;;6.63;4.60;;;20.70;99.90;;;;;;5018284;28;20464;-64
2022/05/26 13:39:34;;;;;;;6.73;4.17;;;21.10;99.90;;;;;;5019941;28;20514;-64
2022/05/26 13:42:02;;;;;;;11.40;4.43;;;21.60;99.90;;;;;;4999969;28;20888;-64
2022/05/26 13:44:36;;;;;;;5.70;3.93;;;22.30;99.90;;;;;;4999735;28;20469;-63
2022/05/26 13:47:08;;;;;;;6.40;3.70;;;22.70;99.90;;;;;;5008263;28;20488;-64
2022/05/26 13:49:39;;;;;;;7.70;4.40;;;22.50;99.90;;;;;;5019649;28;20449;-64
2022/05/26 13:52:15;;;;;;;5.33;4.10;;;22.50;99.90;;;;;;5018396;28;20470;-63